Main page
METAR-TAF:

METAR-TAF

Airports :

Yeovilton, England

RNAS Yeovilton (HMS Heron)

latitude: 51-00N, longitude: 002-38W, elevation: 23 m

Current weather observation

The report was made 55 minutes ago, at 07:50 UTC
Wind 5 kt from the South/Southwest
Temperature 15°C
Humidity 82%
Pressure 1021 hPa
Visibility 10 km or more
Broken clouds at a height of 1300 ft

METAR: EGDY 230750Z 21005KT 9999 BKN013 15/12 Q1021 GRN NOSIG

Time: 09:45 (08:45 UTC)

Forecast

The report was made 59 minutes ago, at 07:46 UTC
Forecast valid from 23 at 09 UTC to 23 at 18 UTC
Wind 4 kt from the West/Northwest
Visibility 10 km or more
Broken clouds at a height of 1500 ft
Temporary
from 23 at 09 UTC to 23 at 12 UTC
Scattered clouds at a height of 1200 ft
Probability 30% :
Temporary
from 23 at 09 UTC to 23 at 12 UTC
Visibility: 5000 m
light rain, drizzle

TAF: EGDY 230746Z 2309/2318 29004KT 9999 BKN015 TEMPO 2309/2312 SCT012 PROB30 TEMPO 2309/2312 5000 -RADZ

Weather observations and forecasts of more than 4000 airports (METAR and TAF reports).

The available stations are represented by yellow and red dots on the map.

Hover mouse over dot to see the name of the station.

Then click to see weather observations and forecasts.

To change the map : click on the green buttons with a black cross to zoom in, on the green button with a dash to zoom out, or on the green arrows for adjacent maps.


METAR-TAF: